createdAt,value
2019-05-07T00:00:47.156Z,5.70
2019-05-07T00:03:17.460Z,5.70
2019-05-07T00:05:47.820Z,5.60
2019-05-07T00:08:18.172Z,5.60
2019-05-07T00:10:48.450Z,5.50
2019-05-07T00:13:18.804Z,5.50
2019-05-07T00:15:52.626Z,5.50
2019-05-07T00:18:22.937Z,5.40
2019-05-07T00:20:54.649Z,5.30
2019-05-07T00:23:24.973Z,5.30
2019-05-07T00:25:55.443Z,5.30
2019-05-07T00:28:25.871Z,5.20
2019-05-07T00:30:56.549Z,5.20
2019-05-07T00:33:27.032Z,5.20
2019-05-07T00:35:58.895Z,5.20
2019-05-07T00:38:31.922Z,5.10
2019-05-07T00:41:12.796Z,5.10
2019-05-07T00:43:57.017Z,5.10
2019-05-07T00:46:28.752Z,5.10
2019-05-07T00:48:58.941Z,5.10
2019-05-07T00:51:33.587Z,5.10
2019-05-07T00:54:05.716Z,5.00
2019-05-07T00:56:35.989Z,5.00
2019-05-07T00:59:07.194Z,5.00
2019-05-07T01:01:37.523Z,4.90
2019-05-07T01:04:07.715Z,4.90
2019-05-07T01:06:38.099Z,4.90
2019-05-07T01:09:08.699Z,4.80
2019-05-07T01:11:39.035Z,4.80
2019-05-07T01:14:09.383Z,4.80
2019-05-07T01:16:41.905Z,4.80
2019-05-07T01:19:13.412Z,4.80
2019-05-07T01:21:43.646Z,4.70
2019-05-07T01:24:13.867Z,4.80
2019-05-07T01:26:44.085Z,4.70
2019-05-07T01:29:14.327Z,4.70
2019-05-07T01:31:49.173Z,4.70
2019-05-07T01:34:24.211Z,4.90
2019-05-07T01:36:54.527Z,4.70
2019-05-07T01:39:24.822Z,4.70
2019-05-07T01:41:55.069Z,4.80
2019-05-07T01:44:25.323Z,4.80
2019-05-07T01:46:55.587Z,4.80
2019-05-07T01:49:25.948Z,4.70
2019-05-07T01:51:56.205Z,4.70
2019-05-07T01:54:26.531Z,4.70
2019-05-07T01:56:56.784Z,4.70
2019-05-07T01:59:27.122Z,4.70
2019-05-07T02:01:59.051Z,4.60
2019-05-07T02:04:33.856Z,4.50
2019-05-07T02:07:22.661Z,4.50
2019-05-07T02:10:04.196Z,4.50
2019-05-07T02:12:36.247Z,4.50
2019-05-07T02:15:08.757Z,4.50
2019-05-07T02:17:39.589Z,4.50
2019-05-07T02:20:09.876Z,4.50
2019-05-07T02:22:40.155Z,4.50
2019-05-07T02:25:12.571Z,4.40
2019-05-07T02:27:42.623Z,4.40
2019-05-07T02:30:14.876Z,4.40
2019-05-07T02:32:45.061Z,4.40
2019-05-07T02:35:16.328Z,4.40
2019-05-07T02:37:52.547Z,4.40
2019-05-07T02:40:24.730Z,4.40
2019-05-07T02:42:55.027Z,4.30
2019-05-07T02:45:36.115Z,4.40
2019-05-07T02:48:06.515Z,4.40
2019-05-07T02:50:39.356Z,4.40
2019-05-07T02:53:18.168Z,4.50
2019-05-07T02:55:53.161Z,4.50
2019-05-07T02:58:24.188Z,4.50
2019-05-07T03:00:54.677Z,4.60
2019-05-07T03:03:25.065Z,4.60
2019-05-07T03:05:56.317Z,4.60
2019-05-07T03:08:27.653Z,4.60
2019-05-07T03:10:58.097Z,4.70
2019-05-07T03:13:28.396Z,4.70
2019-05-07T03:15:58.690Z,4.70
2019-05-07T03:18:28.977Z,4.70
2019-05-07T03:21:03.497Z,4.70
2019-05-07T03:23:43.916Z,4.70
2019-05-07T03:26:23.109Z,4.80
2019-05-07T03:28:55.861Z,4.80
2019-05-07T03:31:27.911Z,4.70
2019-05-07T03:34:07.257Z,4.80
2019-05-07T03:36:47.257Z,4.80
2019-05-07T03:39:14.731Z,4.80
2019-05-07T03:41:45.486Z,4.80
2019-05-07T03:44:23.549Z,4.90
2019-05-07T03:47:01.534Z,4.90
2019-05-07T03:49:34.135Z,4.90
2019-05-07T03:52:04.463Z,5.00
2019-05-07T03:54:35.110Z,5.00
2019-05-07T03:57:11.152Z,5.00
2019-05-07T03:59:37.222Z,5.00
2019-05-07T04:02:08.072Z,5.00
2019-05-07T04:04:39.331Z,5.10
2019-05-07T04:07:09.622Z,5.10
2019-05-07T04:09:39.882Z,5.20
2019-05-07T04:12:12.997Z,5.20
2019-05-07T04:14:43.201Z,5.20
2019-05-07T04:17:21.809Z,5.30
2019-05-07T04:19:45.777Z,5.30
2019-05-07T04:22:17.797Z,5.40
2019-05-07T04:25:04.979Z,5.50
2019-05-07T04:27:44.126Z,5.50
2019-05-07T04:30:12.721Z,5.60
2019-05-07T04:32:45.348Z,5.70
2019-05-07T04:35:17.173Z,5.70
2019-05-07T04:37:47.644Z,5.70
2019-05-07T04:40:23.728Z,5.70
2019-05-07T04:42:53.794Z,5.80
2019-05-07T04:45:24.391Z,5.80
2019-05-07T04:47:54.678Z,5.80
2019-05-07T04:50:41.437Z,5.80
2019-05-07T04:53:02.572Z,5.80
2019-05-07T04:55:33.509Z,5.80
2019-05-07T04:58:08.825Z,5.90
2019-05-07T05:00:36.705Z,5.80
2019-05-07T05:03:23.938Z,5.90
2019-05-07T05:05:55.494Z,5.90
2019-05-07T05:08:25.816Z,6.00
2019-05-07T05:10:56.030Z,6.00
2019-05-07T05:13:26.375Z,6.00
2019-05-07T05:15:56.600Z,6.10
2019-05-07T05:18:26.892Z,6.20
2019-05-07T05:20:59.581Z,6.30
2019-05-07T05:23:32.277Z,6.40
2019-05-07T05:26:02.771Z,6.50
2019-05-07T05:28:34.029Z,6.60
2019-05-07T05:31:05.949Z,6.80
2019-05-07T05:33:36.222Z,6.90
2019-05-07T05:36:06.574Z,7.00
2019-05-07T05:38:36.823Z,7.10
2019-05-07T05:41:07.245Z,7.20
2019-05-07T05:43:42.615Z,7.20
2019-05-07T05:46:14.636Z,7.30
2019-05-07T05:48:44.903Z,7.40
2019-05-07T05:51:26.258Z,7.60
2019-05-07T05:54:07.418Z,7.60
2019-05-07T05:56:39.342Z,7.60
2019-05-07T05:59:23.760Z,7.70
2019-05-07T06:02:06.545Z,7.70
2019-05-07T06:04:37.690Z,7.70
2019-05-07T06:07:26.099Z,7.80
2019-05-07T06:10:15.987Z,7.80
2019-05-07T06:13:04.438Z,7.80
2019-05-07T06:15:54.519Z,7.90
2019-05-07T06:18:35.679Z,7.90
2019-05-07T06:21:12.460Z,7.90
2019-05-07T06:23:49.507Z,7.90
2019-05-07T06:26:19.807Z,8.00
2019-05-07T06:28:51.918Z,8.00
2019-05-07T06:31:22.250Z,8.10
2019-05-07T06:33:52.612Z,8.10
2019-05-07T06:36:22.916Z,8.10
2019-05-07T06:39:03.863Z,8.10
2019-05-07T06:41:52.840Z,8.10
2019-05-07T06:44:24.088Z,8.20
2019-05-07T06:46:54.402Z,8.20
2019-05-07T06:49:24.711Z,8.30
2019-05-07T06:51:54.997Z,8.40
2019-05-07T06:54:25.184Z,8.40
2019-05-07T06:56:55.502Z,8.40
2019-05-07T06:59:27.309Z,8.50
2019-05-07T07:01:59.353Z,8.60
2019-05-07T07:04:34.328Z,8.70
2019-05-07T07:07:22.441Z,8.80
2019-05-07T07:09:42.698Z,8.90
2019-05-07T07:12:17.071Z,8.90
2019-05-07T07:14:53.635Z,9.00
2019-05-07T07:17:23.972Z,9.10
2019-05-07T07:19:54.164Z,9.10
2019-05-07T07:22:24.442Z,9.20
2019-05-07T07:24:54.652Z,9.30
2019-05-07T07:27:25.031Z,9.40
2019-05-07T07:30:02.688Z,9.40
2019-05-07T07:32:37.470Z,9.40
2019-05-07T07:35:09.733Z,9.40
2019-05-07T07:37:43.090Z,9.40
2019-05-07T07:40:16.648Z,9.50
2019-05-07T07:42:47.912Z,9.60
2019-05-07T07:45:18.746Z,9.60
2019-05-07T07:47:49.020Z,9.60
2019-05-07T07:50:22.125Z,9.70
2019-05-07T07:52:52.970Z,9.80
2019-05-07T07:55:25.150Z,9.90
2019-05-07T07:58:15.387Z,10.00
2019-05-07T08:00:47.188Z,10.00
2019-05-07T08:03:17.472Z,10.00
2019-05-07T08:05:47.772Z,10.00
2019-05-07T08:08:18.097Z,10.10
2019-05-07T08:10:48.364Z,10.20
2019-05-07T08:13:18.765Z,10.20
2019-05-07T08:15:49.038Z,10.30
2019-05-07T08:18:19.382Z,10.20
2019-05-07T08:20:51.897Z,10.30
2019-05-07T08:23:22.646Z,10.30
2019-05-07T08:25:53.102Z,10.40
2019-05-07T08:28:23.493Z,10.50
2019-05-07T08:30:58.125Z,10.50
2019-05-07T08:33:39.244Z,10.40
2019-05-07T08:36:12.085Z,10.40
2019-05-07T08:38:52.443Z,10.60
2019-05-07T08:41:23.356Z,10.60
2019-05-07T08:44:08.294Z,10.60
2019-05-07T08:46:28.914Z,10.70
2019-05-07T08:48:59.373Z,10.80
2019-05-07T08:51:29.655Z,10.80
2019-05-07T08:54:06.260Z,10.90
2019-05-07T08:56:37.420Z,10.90
2019-05-07T08:59:07.990Z,10.80
2019-05-07T09:01:43.062Z,10.80
2019-05-07T09:04:13.451Z,10.90
2019-05-07T09:06:44.019Z,11.00
2019-05-07T09:09:14.591Z,11.00
2019-05-07T09:11:44.924Z,11.10
2019-05-07T09:14:15.114Z,11.00
2019-05-07T09:16:45.449Z,11.10
2019-05-07T09:19:15.619Z,11.20
2019-05-07T09:21:45.995Z,11.20
2019-05-07T09:24:16.301Z,11.20
2019-05-07T09:26:54.216Z,11.20
2019-05-07T09:29:29.216Z,11.30
2019-05-07T09:32:13.131Z,11.40
2019-05-07T09:34:47.117Z,11.50
2019-05-07T09:37:22.703Z,11.70
2019-05-07T09:39:53.001Z,11.80
2019-05-07T09:42:23.321Z,11.80
2019-05-07T09:44:53.965Z,11.70
2019-05-07T09:47:24.397Z,11.70
2019-05-07T09:50:03.923Z,11.80
2019-05-07T09:52:26.576Z,12.00
2019-05-07T09:54:57.629Z,12.00
2019-05-07T09:57:31.363Z,11.90
2019-05-07T10:00:02.036Z,11.90
2019-05-07T10:02:32.049Z,11.90
2019-05-07T10:05:02.661Z,11.80
2019-05-07T10:07:33.937Z,11.90
2019-05-07T10:10:06.304Z,11.70
2019-05-07T10:12:44.105Z,11.90
2019-05-07T10:15:14.963Z,12.00
2019-05-07T10:17:49.396Z,11.80
2019-05-07T10:20:22.608Z,11.90
2019-05-07T10:22:52.237Z,12.00
2019-05-07T10:25:22.612Z,12.10
2019-05-07T10:27:54.004Z,12.30
2019-05-07T10:30:24.188Z,12.50
2019-05-07T10:32:54.520Z,12.70
2019-05-07T10:35:24.789Z,12.80
2019-05-07T10:37:55.098Z,12.90
2019-05-07T10:40:25.453Z,13.10
2019-05-07T10:42:56.145Z,13.10
2019-05-07T10:45:32.321Z,13.10
2019-05-07T10:48:22.079Z,12.80
2019-05-07T10:50:57.083Z,12.50
2019-05-07T10:53:27.426Z,12.50
2019-05-07T10:55:57.632Z,12.40
2019-05-07T10:58:27.937Z,12.30
2019-05-07T11:00:58.199Z,12.20
2019-05-07T11:03:28.487Z,12.00
2019-05-07T11:05:58.687Z,12.00
2019-05-07T11:08:29.313Z,11.80
2019-05-07T11:10:59.607Z,11.50
2019-05-07T11:13:29.978Z,11.30
2019-05-07T11:16:02.491Z,11.20
2019-05-07T11:18:34.699Z,11.00
2019-05-07T11:21:04.912Z,10.90
2019-05-07T11:23:35.250Z,10.90
2019-05-07T11:26:05.615Z,10.90
2019-05-07T11:28:35.917Z,11.00
2019-05-07T11:31:06.184Z,11.10
2019-05-07T11:33:36.419Z,11.40
2019-05-07T11:36:06.615Z,11.50
2019-05-07T11:38:36.932Z,11.60
2019-05-07T11:41:07.193Z,11.50
2019-05-07T11:43:48.074Z,12.60
2019-05-07T11:46:38.012Z,11.60
2019-05-07T11:49:22.750Z,11.70
2019-05-07T11:51:57.489Z,11.80
2019-05-07T11:54:27.776Z,11.80
2019-05-07T11:56:58.045Z,11.80
2019-05-07T11:59:28.349Z,11.90
2019-05-07T12:02:00.207Z,12.00
2019-05-07T12:04:32.001Z,12.10
2019-05-07T12:07:03.452Z,11.90
2019-05-07T12:09:33.687Z,11.90
2019-05-07T12:12:03.968Z,12.00
2019-05-07T12:14:35.007Z,12.10
2019-05-07T12:17:05.444Z,12.10
2019-05-07T12:19:35.735Z,12.40
2019-05-07T12:22:06.869Z,12.50
2019-05-07T12:24:38.457Z,12.40
2019-05-07T12:27:08.763Z,12.40
2019-05-07T12:29:38.956Z,12.40
2019-05-07T12:32:10.877Z,12.40
2019-05-07T12:34:42.682Z,12.40
2019-05-07T12:37:12.916Z,12.40
2019-05-07T12:39:43.201Z,12.40
2019-05-07T12:42:13.538Z,12.40
2019-05-07T12:44:43.859Z,12.40
2019-05-07T12:47:14.085Z,12.40
2019-05-07T12:49:44.396Z,12.30
2019-05-07T12:52:18.972Z,12.40
2019-05-07T12:54:52.463Z,12.40
2019-05-07T12:57:23.839Z,12.30
2019-05-07T12:59:54.109Z,12.30
2019-05-07T13:02:44.220Z,12.30
2019-05-07T13:05:13.364Z,12.40
2019-05-07T13:07:47.953Z,12.40
2019-05-07T13:10:18.259Z,12.50
2019-05-07T13:12:48.537Z,12.50
2019-05-07T13:15:28.028Z,12.60
2019-05-07T13:17:57.175Z,12.60
2019-05-07T13:20:27.578Z,12.70
2019-05-07T13:22:57.867Z,12.60
2019-05-07T13:25:28.624Z,12.60
2019-05-07T13:27:58.986Z,12.50
2019-05-07T13:30:29.314Z,12.50
2019-05-07T13:33:02.014Z,12.50
2019-05-07T13:35:32.925Z,12.50
2019-05-07T13:38:05.663Z,12.40
2019-05-07T13:40:37.781Z,12.50
2019-05-07T13:43:23.078Z,12.50
2019-05-07T13:46:04.656Z,12.50
2019-05-07T13:48:36.927Z,12.50
2019-05-07T13:51:07.250Z,12.40
2019-05-07T13:53:37.542Z,12.40
2019-05-07T13:56:07.868Z,12.40
2019-05-07T13:58:38.148Z,12.30
2019-05-07T14:01:19.074Z,12.40
2019-05-07T14:03:49.337Z,12.40
2019-05-07T14:06:37.894Z,12.40
2019-05-07T14:09:24.500Z,12.30
2019-05-07T14:11:54.917Z,12.30
2019-05-07T14:14:25.162Z,12.30
2019-05-07T14:16:55.473Z,12.20
2019-05-07T14:19:25.758Z,12.30
2019-05-07T14:21:56.073Z,12.20
2019-05-07T14:24:26.269Z,12.20
2019-05-07T14:26:56.569Z,12.20
2019-05-07T14:29:26.838Z,12.20
2019-05-07T14:32:16.696Z,12.20
2019-05-07T14:35:06.912Z,12.30
2019-05-07T14:37:38.851Z,12.30
2019-05-07T14:40:09.603Z,12.30
2019-05-07T14:42:41.911Z,12.30
2019-05-07T14:45:12.666Z,12.30
2019-05-07T14:47:44.749Z,12.20
2019-05-07T14:50:15.952Z,12.20
2019-05-07T14:52:46.272Z,12.10
2019-05-07T14:55:21.693Z,12.00
2019-05-07T14:57:52.438Z,11.90
2019-05-07T15:00:23.343Z,11.70
2019-05-07T15:02:54.276Z,11.50
2019-05-07T15:05:24.642Z,11.50
2019-05-07T15:08:07.494Z,11.40
2019-05-07T15:10:26.740Z,11.20
2019-05-07T15:12:58.107Z,11.10
2019-05-07T15:15:28.581Z,11.10
2019-05-07T15:18:00.553Z,11.10
2019-05-07T15:20:32.888Z,11.10
2019-05-07T15:23:04.976Z,11.20
2019-05-07T15:25:35.512Z,11.10
2019-05-07T15:28:06.413Z,11.20
2019-05-07T15:30:38.243Z,11.20
2019-05-07T15:33:08.523Z,11.40
2019-05-07T15:35:38.924Z,11.40
2019-05-07T15:38:11.636Z,11.50
2019-05-07T15:40:43.080Z,11.60
2019-05-07T15:43:13.406Z,11.80
2019-05-07T15:45:43.751Z,11.90
2019-05-07T15:48:14.076Z,12.10
2019-05-07T15:50:44.367Z,12.40
2019-05-07T15:53:19.003Z,12.60
2019-05-07T15:55:49.213Z,12.80
2019-05-07T15:58:19.417Z,12.80
2019-05-07T16:00:51.621Z,12.90
2019-05-07T16:03:35.064Z,13.00
2019-05-07T16:06:06.366Z,12.80
2019-05-07T16:08:38.225Z,12.70
2019-05-07T16:11:08.433Z,12.50
2019-05-07T16:13:43.258Z,12.60
2019-05-07T16:16:13.544Z,12.50
2019-05-07T16:19:03.655Z,12.40
2019-05-07T16:21:33.952Z,12.40
2019-05-07T16:24:04.284Z,12.40
2019-05-07T16:26:34.663Z,12.50
2019-05-07T16:29:04.954Z,12.50
2019-05-07T16:31:35.237Z,12.40
2019-05-07T16:34:05.495Z,12.30
2019-05-07T16:36:35.793Z,12.20
2019-05-07T16:39:07.565Z,12.10
2019-05-07T16:41:37.785Z,12.00
2019-05-07T16:44:08.059Z,12.00
2019-05-07T16:46:38.351Z,12.00
2019-05-07T16:49:08.667Z,12.00
2019-05-07T16:51:39.031Z,12.00
2019-05-07T16:54:09.319Z,12.10
2019-05-07T16:56:42.745Z,12.10
2019-05-07T16:59:12.693Z,12.00
2019-05-07T17:01:43.114Z,12.10
2019-05-07T17:04:13.410Z,12.10
2019-05-07T17:06:43.717Z,12.00
2019-05-07T17:09:14.594Z,11.90
2019-05-07T17:11:44.932Z,11.90
2019-05-07T17:14:15.142Z,11.80
2019-05-07T17:16:45.412Z,11.80
2019-05-07T17:19:16.016Z,11.70
2019-05-07T17:21:46.296Z,11.60
2019-05-07T17:24:16.678Z,11.60
2019-05-07T17:26:46.952Z,11.60
2019-05-07T17:29:17.820Z,11.60
2019-05-07T17:31:48.120Z,11.60
2019-05-07T17:34:18.403Z,11.60
2019-05-07T17:36:48.598Z,11.50
2019-05-07T17:39:18.896Z,11.50
2019-05-07T17:41:49.189Z,11.40
2019-05-07T17:44:19.693Z,11.40
2019-05-07T17:46:52.595Z,11.40
2019-05-07T17:49:23.180Z,11.40
2019-05-07T17:51:53.443Z,11.30
2019-05-07T17:54:23.826Z,11.30
2019-05-07T17:56:54.025Z,11.30
2019-05-07T17:59:24.265Z,11.30
2019-05-07T18:01:58.843Z,11.30
2019-05-07T18:04:29.662Z,11.20
2019-05-07T18:07:01.114Z,11.20
2019-05-07T18:09:32.364Z,11.20
2019-05-07T18:12:02.800Z,11.10
2019-05-07T18:14:33.133Z,11.10
2019-05-07T18:17:04.986Z,11.10
2019-05-07T18:19:35.292Z,11.00
2019-05-07T18:22:05.525Z,11.00
2019-05-07T18:24:35.848Z,11.00
2019-05-07T18:27:07.695Z,10.90
2019-05-07T18:29:38.036Z,10.90
2019-05-07T18:32:08.322Z,10.90
2019-05-07T18:34:45.394Z,10.90
2019-05-07T18:37:15.611Z,10.80
2019-05-07T18:39:45.936Z,10.80
2019-05-07T18:42:16.205Z,10.80
2019-05-07T18:44:47.537Z,10.80
2019-05-07T18:47:17.822Z,10.80
2019-05-07T18:49:48.148Z,10.80
2019-05-07T18:52:18.415Z,10.80
2019-05-07T18:54:51.677Z,10.80
2019-05-07T18:57:22.282Z,10.80
2019-05-07T18:59:53.298Z,10.70
2019-05-07T19:02:24.780Z,10.70
2019-05-07T19:04:55.307Z,10.70
2019-05-07T19:07:25.589Z,10.70
2019-05-07T19:09:55.917Z,10.70
2019-05-07T19:12:29.373Z,10.70
2019-05-07T19:15:02.962Z,10.70
2019-05-07T19:17:33.644Z,10.60
2019-05-07T19:20:04.507Z,10.60
2019-05-07T19:22:37.759Z,10.60
2019-05-07T19:25:13.123Z,10.60
2019-05-07T19:27:43.720Z,10.50
2019-05-07T19:30:14.453Z,10.50
2019-05-07T19:32:44.737Z,10.50
2019-05-07T19:35:15.505Z,10.50
2019-05-07T19:37:45.816Z,10.40
2019-05-07T19:40:16.285Z,10.40
2019-05-07T19:42:46.599Z,10.40
2019-05-07T19:45:19.047Z,10.40
2019-05-07T19:47:48.982Z,10.40
2019-05-07T19:50:19.416Z,10.40
2019-05-07T19:52:49.707Z,10.40
2019-05-07T19:55:21.978Z,10.40
2019-05-07T19:58:05.656Z,10.40
2019-05-07T20:00:35.541Z,10.40
2019-05-07T20:03:05.670Z,10.30
2019-05-07T20:05:37.450Z,10.30
2019-05-07T20:08:07.892Z,10.30
2019-05-07T20:10:42.356Z,10.30
2019-05-07T20:13:13.689Z,10.30
2019-05-07T20:15:47.730Z,10.20
2019-05-07T20:18:17.940Z,10.20
2019-05-07T20:20:49.457Z,10.20
2019-05-07T20:23:19.669Z,10.10
2019-05-07T20:25:52.837Z,10.10
2019-05-07T20:28:24.765Z,10.10
2019-05-07T20:30:56.358Z,10.10
2019-05-07T20:33:27.046Z,10.10
2019-05-07T20:35:57.410Z,10.10
2019-05-07T20:38:27.730Z,10.10
2019-05-07T20:40:57.993Z,10.10
2019-05-07T20:43:28.281Z,10.00
2019-05-07T20:45:58.641Z,10.00
2019-05-07T20:48:28.863Z,10.00
2019-05-07T20:50:59.259Z,10.00
2019-05-07T20:53:47.417Z,10.00
2019-05-07T20:56:19.366Z,10.00
2019-05-07T20:58:51.907Z,10.00
2019-05-07T21:01:22.118Z,9.90
2019-05-07T21:03:52.831Z,9.90
2019-05-07T21:06:32.079Z,9.80
2019-05-07T21:09:02.110Z,9.80
2019-05-07T21:11:34.008Z,9.70
2019-05-07T21:14:04.324Z,9.70
2019-05-07T21:16:34.706Z,9.60
2019-05-07T21:19:05.135Z,9.60
2019-05-07T21:21:35.512Z,9.50
2019-05-07T21:24:05.799Z,9.40
2019-05-07T21:26:36.181Z,9.40
2019-05-07T21:29:06.546Z,9.40
2019-05-07T21:31:36.940Z,9.30
2019-05-07T21:34:07.266Z,9.20
2019-05-07T21:36:38.764Z,9.20
2019-05-07T21:39:09.108Z,9.20
2019-05-07T21:41:39.422Z,9.10
2019-05-07T21:44:11.713Z,9.00
2019-05-07T21:46:42.539Z,9.00
2019-05-07T21:49:13.124Z,9.00
2019-05-07T21:51:43.427Z,9.10
2019-05-07T21:54:23.560Z,8.80
2019-05-07T21:57:02.035Z,8.80
2019-05-07T21:59:36.845Z,8.70
2019-05-07T22:02:12.631Z,8.70
2019-05-07T22:04:43.245Z,8.60
2019-05-07T22:07:13.597Z,8.50
2019-05-07T22:09:43.831Z,8.50
2019-05-07T22:12:15.668Z,8.50
2019-05-07T22:14:46.020Z,8.40
2019-05-07T22:17:16.661Z,8.40
2019-05-07T22:19:46.971Z,8.30
2019-05-07T22:22:17.601Z,8.30
2019-05-07T22:24:49.475Z,8.20
2019-05-07T22:27:22.101Z,8.20
2019-05-07T22:29:52.807Z,8.20
2019-05-07T22:32:36.725Z,8.20
2019-05-07T22:35:11.931Z,8.10
2019-05-07T22:37:43.369Z,8.00
2019-05-07T22:40:22.570Z,7.90
2019-05-07T22:42:54.588Z,7.90
2019-05-07T22:45:24.858Z,7.90
2019-05-07T22:47:55.101Z,7.80
2019-05-07T22:50:25.925Z,7.80
2019-05-07T22:52:56.200Z,7.80
2019-05-07T22:55:26.384Z,7.70
2019-05-07T22:57:58.250Z,7.70
2019-05-07T23:00:33.286Z,7.60
2019-05-07T23:03:03.620Z,7.60
2019-05-07T23:05:33.820Z,7.60
2019-05-07T23:08:04.083Z,7.50
2019-05-07T23:10:34.361Z,7.50
2019-05-07T23:13:04.711Z,7.40
2019-05-07T23:15:34.946Z,7.40
2019-05-07T23:18:05.331Z,7.30
2019-05-07T23:20:35.635Z,7.30
2019-05-07T23:23:06.187Z,7.30
2019-05-07T23:25:36.584Z,7.30
2019-05-07T23:28:06.935Z,7.20
2019-05-07T23:30:37.136Z,7.20
2019-05-07T23:33:07.468Z,7.10
2019-05-07T23:35:37.836Z,7.10
2019-05-07T23:38:08.617Z,7.10
2019-05-07T23:40:41.848Z,7.10
2019-05-07T23:43:17.515Z,7.00
2019-05-07T23:45:47.858Z,7.00
2019-05-07T23:48:19.357Z,6.90
2019-05-07T23:50:49.560Z,6.90
2019-05-07T23:53:19.811Z,6.90
2019-05-07T23:55:52.004Z,6.90
2019-05-07T23:58:23.640Z,6.80
